Terminal Aerodrome Forecast
Issued by NWS Corpus Christi, TX

Home | Current Version | Previous Version | Text Only | Print | Product List | Glossary On
Versions: 1 2 3 4 5 6 7 8 9 10 11 12 13 14 15
000
FTUS44 KCRP 160500
TAFVCT
TAF
KVCT 160540Z 1606/1706 VRB03KT P6SM FEW025 BKN250
      TEMPO 1608/1610 5SM BR BKN025
     FM161000 04004KT P6SM VCSH BKN015 OVC100
     FM161500 06007KT P6SM VCTS OVC025CB
      TEMPO 1615/1618 VRB15G25KT 5SM TSRA OVC020CB
     FM161800 11010KT P6SM -TSRA BKN035CB PROB30 1618/1624 3SM +TSRA
      BKN025CB
     FM170200 11005KT P6SM SCT025=

USA.gov is the U.S. government's official web portal to all federal, state and local government web resources and services.